Time;durP1;ratioP1;P1;durP2;ratioP2;P2;SDS_P1;SDS_P2;PMS_P1;PMS_P2;Temp;Humidity;BMP_temperature;BMP_pressure;BME280_temperature;BME280_humidity;BME280_pressure;Samples;Min_cycle;Max_cycle;Signal;HPM_P1;HPM_P2
2024/02/21 00:01:26;;;;;;;76.20;43.20;;;18.70;68.60;;;;;;5005141;28;20046;-78
2024/02/21 00:03:51;;;;;;;79.70;44.28;;;18.70;68.70;;;;;;5005545;28;20045;-78
2024/02/21 00:06:17;;;;;;;82.45;46.20;;;18.70;69.60;;;;;;5020628;28;20173;-79
2024/02/21 00:08:43;;;;;;;80.43;44.33;;;18.60;68.90;;;;;;5021529;28;20069;-79
2024/02/21 00:11:08;;;;;;;83.07;44.83;;;18.60;69.20;;;;;;5005775;28;20071;-78
2024/02/21 00:13:34;;;;;;;74.68;43.42;;;18.60;69.20;;;;;;5004307;28;20057;-79
2024/02/21 00:16:00;;;;;;;75.00;46.03;;;18.50;69.30;;;;;;4988350;28;20691;-79
2024/02/21 00:18:26;;;;;;;77.43;45.67;;;18.50;69.40;;;;;;5002419;28;20517;-79
2024/02/21 00:20:52;;;;;;;74.10;42.90;;;18.50;69.50;;;;;;5005300;28;20579;-78
2024/02/21 00:23:18;;;;;;;75.50;43.55;;;18.40;69.60;;;;;;5032824;28;20042;-79
2024/02/21 00:25:43;;;;;;;70.63;40.80;;;18.40;69.70;;;;;;5016881;28;20412;-79
2024/02/21 00:28:09;;;;;;;72.75;43.75;;;18.30;70.60;;;;;;5005516;28;20038;-79
2024/02/21 00:30:34;;;;;;;66.70;40.22;;;18.30;69.90;;;;;;5001607;28;20455;-79
2024/02/21 00:33:00;;;;;;;71.43;42.10;;;18.30;70.10;;;;;;4999432;28;20049;-78
2024/02/21 00:35:26;;;;;;;70.95;43.83;;;18.30;70.10;;;;;;5002895;28;20042;-78
2024/02/21 00:37:52;;;;;;;66.38;39.80;;;18.30;70.20;;;;;;5004258;28;20049;-78
2024/02/21 00:40:20;;;;;;;70.75;41.45;;;18.20;70.30;;;;;;5004258;28;20053;-78
2024/02/21 00:42:46;;;;;;;66.57;38.40;;;18.20;70.40;;;;;;5005656;28;20041;-79
2024/02/21 00:45:12;;;;;;;64.85;38.25;;;18.20;70.50;;;;;;5021207;28;20065;-79
2024/02/21 00:47:37;;;;;;;60.72;36.42;;;18.10;70.50;;;;;;5002116;28;20127;-79
2024/02/21 00:50:03;;;;;;;65.22;39.53;;;18.10;70.70;;;;;;5005021;28;20393;-79
2024/02/21 00:52:28;;;;;;;62.22;38.38;;;18.10;70.80;;;;;;5020323;28;20049;-79
2024/02/21 00:54:54;;;;;;;60.70;36.63;;;18.00;70.80;;;;;;5004711;28;20182;-79
2024/02/21 00:57:20;;;;;;;60.28;35.95;;;18.00;70.90;;;;;;5004906;28;20515;-79
2024/02/21 00:59:45;;;;;;;60.38;36.70;;;18.00;71.00;;;;;;5002206;28;20185;-79
2024/02/21 01:02:11;;;;;;;56.78;33.83;;;18.00;71.90;;;;;;5017427;28;20117;-79
2024/02/21 01:04:36;;;;;;;58.30;34.85;;;18.00;71.20;;;;;;5004815;28;20079;-79
2024/02/21 01:07:02;;;;;;;53.80;33.20;;;17.90;71.30;;;;;;5017582;28;20522;-79
2024/02/21 01:09:27;;;;;;;54.97;34.40;;;17.90;71.40;;;;;;5018759;28;20123;-78
2024/02/21 01:11:53;;;;;;;54.20;34.17;;;17.90;71.40;;;;;;5004531;28;20038;-79
2024/02/21 01:14:19;;;;;;;56.50;34.28;;;17.90;71.50;;;;;;5004422;28;20052;-79
2024/02/21 01:16:44;;;;;;;54.00;33.38;;;17.80;71.50;;;;;;5002527;28;20162;-79
2024/02/21 01:19:10;;;;;;;52.55;31.73;;;17.80;71.60;;;;;;5004245;28;20042;-79
2024/02/21 01:21:35;;;;;;;49.97;30.88;;;17.80;71.60;;;;;;5017513;28;20049;-79
2024/02/21 01:24:01;;;;;;;50.00;32.63;;;17.70;71.70;;;;;;5002566;28;20052;-80
2024/02/21 01:26:27;;;;;;;51.40;32.83;;;17.80;71.80;;;;;;5018071;28;20137;-79
2024/02/21 01:28:53;;;;;;;52.30;31.63;;;17.70;71.90;;;;;;4999502;28;20045;-80
2024/02/21 01:31:18;;;;;;;48.63;30.75;;;17.60;71.90;;;;;;5007474;28;20080;-80
2024/02/21 01:33:44;;;;;;;51.25;31.17;;;17.60;71.90;;;;;;5004820;28;20125;-79
2024/02/21 01:36:09;;;;;;;51.17;31.33;;;17.70;72.00;;;;;;5003394;28;21092;-79
2024/02/21 01:38:35;;;;;;;48.78;29.85;;;17.70;72.00;;;;;;5016285;28;20113;-79
2024/02/21 01:41:00;;;;;;;45.85;29.60;;;17.60;72.00;;;;;;5002380;28;20153;-79
2024/02/21 01:43:26;;;;;;;45.58;28.58;;;17.60;72.10;;;;;;5003617;28;20582;-79
2024/02/21 01:45:57;;;;;;;44.22;27.23;;;17.60;72.30;;;;;;4999966;28;20538;-79
2024/02/21 01:48:23;;;;;;;46.25;28.10;;;17.60;72.40;;;;;;4987079;28;20048;-79
2024/02/21 01:50:49;;;;;;;38.55;26.27;;;17.60;72.30;;;;;;5003940;28;20042;-78
2024/02/21 01:53:32;;;;;;;41.92;26.00;;;17.60;72.30;;;;;;5001660;28;20132;-79
2024/02/21 01:55:58;;;;;;;40.95;26.70;;;17.50;72.20;;;;;;5002486;28;20053;-79
2024/02/21 01:58:23;;;;;;;46.30;27.77;;;17.50;72.20;;;;;;5004921;28;20805;-79
2024/02/21 02:00:49;;;;;;;39.70;26.52;;;17.50;72.20;;;;;;5001939;28;20424;-79
2024/02/21 02:03:17;;;;;;;43.83;27.00;;;17.50;72.30;;;;;;5019603;28;20046;-78
2024/02/21 02:05:46;;;;;;;41.60;27.88;;;17.50;72.30;;;;;;5002400;28;20538;-79
2024/02/21 02:08:15;;;;;;;43.10;26.35;;;17.50;72.60;;;;;;4997816;28;20042;-78
2024/02/21 02:10:41;;;;;;;36.60;24.80;;;17.50;72.60;;;;;;5001442;28;20045;-79
2024/02/21 02:13:07;;;;;;;41.60;25.88;;;17.40;72.60;;;;;;5015407;28;20044;-80
2024/02/21 02:15:43;;;;;;;40.40;25.27;;;17.40;72.60;;;;;;5001273;28;20054;-80
2024/02/21 02:18:09;;;;;;;38.30;25.15;;;17.40;72.60;;;;;;5014762;28;20054;-79
2024/02/21 02:20:35;;;;;;;35.13;23.70;;;17.40;72.70;;;;;;5000978;28;20050;-79
2024/02/21 02:23:12;;;;;;;34.70;22.90;;;17.30;72.70;;;;;;4999563;28;20067;-79
2024/02/21 02:25:38;;;;;;;38.03;24.83;;;17.30;72.70;;;;;;4998556;28;20042;-79
2024/02/21 02:28:05;;;;;;;34.55;23.30;;;17.30;72.80;;;;;;4990763;28;20117;-79
2024/02/21 02:30:37;;;;;;;36.20;23.05;;;17.30;72.90;;;;;;5000276;28;20034;-79
2024/02/21 02:33:05;;;;;;;33.00;22.55;;;17.30;73.00;;;;;;4996418;28;20046;-79
2024/02/21 02:35:31;;;;;;;36.13;24.10;;;17.30;73.10;;;;;;4998066;28;20045;-78
2024/02/21 02:37:57;;;;;;;35.63;22.35;;;17.20;73.00;;;;;;4996682;28;20046;-79
2024/02/21 02:40:22;;;;;;;33.65;22.23;;;17.20;73.10;;;;;;5016314;28;20038;-79
2024/02/21 02:42:48;;;;;;;34.60;22.52;;;17.20;73.20;;;;;;4989502;28;20048;-80
2024/02/21 02:45:15;;;;;;;30.20;20.17;;;17.20;73.00;;;;;;5012102;28;20042;-79
2024/02/21 02:47:41;;;;;;;34.17;22.70;;;17.20;73.00;;;;;;5023839;28;20070;-79
2024/02/21 02:50:07;;;;;;;33.13;21.70;;;17.20;73.00;;;;;;5001255;28;20069;-79
2024/02/21 02:52:33;;;;;;;30.75;20.73;;;17.10;73.00;;;;;;5003007;28;21214;-79
2024/02/21 02:54:59;;;;;;;32.33;21.02;;;17.20;73.20;;;;;;5002387;28;20050;-78
2024/02/21 02:57:24;;;;;;;34.10;21.77;;;17.10;73.20;;;;;;4999958;28;20060;-79
2024/02/21 02:59:50;;;;;;;29.98;20.63;;;17.10;73.20;;;;;;5000981;28;20088;-80
2024/02/21 03:02:16;;;;;;;31.95;20.75;;;17.10;73.10;;;;;;4997715;28;20049;-80
2024/02/21 03:04:41;;;;;;;30.13;20.15;;;17.10;73.10;;;;;;5011219;28;20042;-80
2024/02/21 03:07:07;;;;;;;29.48;19.42;;;17.10;72.90;;;;;;4997979;28;20132;-80
2024/02/21 03:09:33;;;;;;;32.00;20.55;;;17.10;73.20;;;;;;5000272;28;20500;-80
2024/02/21 03:12:02;;;;;;;27.25;18.67;;;17.10;73.20;;;;;;5001111;28;20445;-81
2024/02/21 03:14:28;;;;;;;27.63;19.23;;;17.00;73.80;;;;;;5001913;28;20041;-80
2024/02/21 03:16:54;;;;;;;24.80;17.88;;;17.10;73.10;;;;;;5000353;28;20065;-81
2024/02/21 03:19:20;;;;;;;25.83;18.10;;;17.00;72.70;;;;;;5016698;28;20523;-80
2024/02/21 03:21:45;;;;;;;26.52;18.02;;;17.00;73.10;;;;;;5003531;28;20042;-79
2024/02/21 03:24:11;;;;;;;29.13;18.55;;;17.00;72.90;;;;;;5015888;28;20462;-79
2024/02/21 03:26:36;;;;;;;25.23;17.70;;;17.00;73.20;;;;;;5016655;28;20111;-79
2024/02/21 03:29:05;;;;;;;27.48;18.98;;;17.00;73.30;;;;;;5016460;28;20041;-81
2024/02/21 03:31:31;;;;;;;24.73;16.52;;;17.00;73.10;;;;;;5011979;28;20056;-81
2024/02/21 03:33:57;;;;;;;23.77;16.88;;;17.00;73.20;;;;;;5016011;28;20053;-79
2024/02/21 03:36:22;;;;;;;24.83;16.70;;;16.90;73.00;;;;;;5016140;28;20049;-79
2024/02/21 03:38:48;;;;;;;22.52;16.88;;;17.00;73.30;;;;;;5000303;28;20580;-79
2024/02/21 03:41:13;;;;;;;22.42;16.25;;;16.90;73.00;;;;;;5015466;28;20077;-80
2024/02/21 03:43:39;;;;;;;24.20;16.38;;;16.90;72.80;;;;;;5000510;28;20048;-79
2024/02/21 03:46:05;;;;;;;26.30;16.85;;;16.90;73.00;;;;;;4995852;28;20057;-79
2024/02/21 03:48:30;;;;;;;22.35;15.82;;;16.90;72.80;;;;;;4997741;28;20030;-79
2024/02/21 03:50:56;;;;;;;21.38;15.45;;;16.90;72.80;;;;;;4999299;28;20133;-79
2024/02/21 03:53:21;;;;;;;21.55;15.73;;;16.90;73.00;;;;;;5015848;28;20152;-79
2024/02/21 03:55:47;;;;;;;21.45;15.85;;;16.90;72.80;;;;;;5016942;28;20064;-79
2024/02/21 03:58:13;;;;;;;20.70;15.15;;;16.90;73.00;;;;;;5002912;28;20042;-79
2024/02/21 04:00:39;;;;;;;20.95;15.18;;;16.90;72.90;;;;;;5002397;28;20050;-79
2024/02/21 04:03:04;;;;;;;21.20;14.80;;;16.80;73.00;;;;;;4998645;28;20500;-79
2024/02/21 04:05:30;;;;;;;20.42;14.40;;;16.80;72.80;;;;;;5019064;28;20423;-79
2024/02/21 04:07:55;;;;;;;19.38;14.00;;;16.80;72.80;;;;;;5002315;28;20078;-79
2024/02/21 04:10:21;;;;;;;20.90;14.35;;;16.80;72.90;;;;;;5002966;28;20043;-79
2024/02/21 04:12:46;;;;;;;19.58;14.45;;;16.80;73.00;;;;;;5001701;28;20038;-80
2024/02/21 04:15:12;;;;;;;19.85;14.57;;;16.80;72.80;;;;;;5005238;28;20479;-79
2024/02/21 04:17:37;;;;;;;20.08;15.40;;;16.80;72.90;;;;;;5003192;28;20535;-80
2024/02/21 04:20:05;;;;;;;20.17;13.93;;;16.80;73.10;;;;;;5017158;28;20038;-82
2024/02/21 04:22:32;;;;;;;19.38;14.35;;;16.80;73.00;;;;;;5005272;28;20111;-80
2024/02/21 04:24:59;;;;;;;17.95;13.90;;;16.80;73.00;;;;;;5003827;28;20093;-80
2024/02/21 04:27:24;;;;;;;20.58;13.85;;;16.80;73.00;;;;;;4985753;28;20050;-81
2024/02/21 04:29:50;;;;;;;18.50;14.13;;;16.70;73.00;;;;;;4999276;28;20420;-80
2024/02/21 04:32:15;;;;;;;16.92;13.10;;;16.70;73.10;;;;;;5018147;28;20416;-80
2024/02/21 04:34:41;;;;;;;19.75;13.88;;;16.70;73.10;;;;;;4999414;28;20524;-79
2024/02/21 04:37:07;;;;;;;17.20;12.90;;;16.70;73.10;;;;;;5007001;28;20176;-79
2024/02/21 04:39:32;;;;;;;15.43;11.75;;;16.70;73.20;;;;;;5001074;28;20070;-79
2024/02/21 04:41:58;;;;;;;16.90;13.23;;;16.70;73.20;;;;;;5004379;28;20057;-80
2024/02/21 04:44:23;;;;;;;18.88;13.18;;;16.70;73.20;;;;;;5017965;28;20033;-80
2024/02/21 04:46:49;;;;;;;16.85;12.57;;;16.70;73.20;;;;;;5004304;28;20039;-80
2024/02/21 04:49:14;;;;;;;16.45;12.77;;;16.60;73.20;;;;;;5003030;28;20049;-80
2024/02/21 04:51:40;;;;;;;16.52;12.38;;;16.70;73.20;;;;;;4998691;28;20072;-80
2024/02/21 04:54:06;;;;;;;16.27;12.05;;;16.60;73.20;;;;;;5017700;28;20575;-80
2024/02/21 04:56:32;;;;;;;17.30;11.95;;;16.70;73.20;;;;;;5029777;28;20038;-81
2024/02/21 04:58:57;;;;;;;15.52;11.98;;;16.70;73.30;;;;;;4986114;28;20456;-80
2024/02/21 05:01:23;;;;;;;14.50;11.68;;;16.60;74.10;;;;;;5005743;28;20147;-80
2024/02/21 05:03:48;;;;;;;15.23;11.70;;;16.60;73.30;;;;;;5000728;28;20408;-81
2024/02/21 05:06:14;;;;;;;14.00;10.85;;;16.60;73.30;;;;;;5019348;28;20135;-81
2024/02/21 05:08:40;;;;;;;14.45;11.60;;;16.60;73.30;;;;;;5004667;28;20052;-79
2024/02/21 05:11:05;;;;;;;13.95;10.82;;;16.60;74.20;;;;;;5001641;28;20531;-79
2024/02/21 05:13:31;;;;;;;16.27;11.52;;;16.60;73.40;;;;;;5004826;28;20112;-79
2024/02/21 05:15:57;;;;;;;12.63;10.93;;;16.60;73.40;;;;;;5004279;28;20488;-80
2024/02/21 05:18:22;;;;;;;14.10;11.07;;;16.60;73.50;;;;;;5003282;28;20077;-79
2024/02/21 05:20:48;;;;;;;14.57;11.10;;;16.60;73.50;;;;;;5019048;28;20061;-79
2024/02/21 05:23:13;;;;;;;12.15;10.02;;;16.60;73.40;;;;;;5017971;28;20101;-79
2024/02/21 05:25:39;;;;;;;14.73;11.00;;;16.60;73.40;;;;;;5005370;28;20058;-79
2024/02/21 05:28:06;;;;;;;12.80;9.98;;;16.60;73.50;;;;;;5022475;28;20127;-79
2024/02/21 05:30:31;;;;;;;13.07;9.80;;;16.60;73.50;;;;;;5021031;28;20050;-79
2024/02/21 05:32:57;;;;;;;14.93;10.80;;;16.60;73.60;;;;;;5017220;28;20041;-80
2024/02/21 05:35:27;;;;;;;11.35;9.40;;;16.60;73.60;;;;;;5017249;28;20037;-80
2024/02/21 05:37:53;;;;;;;14.00;11.05;;;16.50;73.60;;;;;;4988649;28;20092;-80
2024/02/21 05:40:18;;;;;;;12.25;9.30;;;16.50;73.60;;;;;;4991312;28;20041;-79
2024/02/21 05:42:44;;;;;;;11.63;9.68;;;16.50;73.60;;;;;;5003680;28;20038;-80
2024/02/21 05:45:09;;;;;;;10.85;9.45;;;16.50;73.60;;;;;;5002544;28;21429;-80
2024/02/21 05:47:35;;;;;;;10.82;9.10;;;16.50;73.60;;;;;;5003248;28;20049;-80
2024/02/21 05:50:01;;;;;;;10.38;9.20;;;16.50;73.60;;;;;;5004364;28;20044;-80
2024/02/21 05:52:26;;;;;;;12.60;9.80;;;16.50;73.60;;;;;;5004459;28;20054;-82
2024/02/21 05:54:52;;;;;;;11.90;9.73;;;16.50;74.40;;;;;;5005846;28;20436;-80
2024/02/21 05:57:18;;;;;;;11.93;10.45;;;16.50;73.70;;;;;;5019616;28;20042;-80
2024/02/21 05:59:43;;;;;;;13.57;9.88;;;16.50;73.70;;;;;;5020371;28;20069;-82
2024/02/21 06:02:09;;;;;;;9.82;8.82;;;16.50;73.70;;;;;;5004919;28;20200;-80
2024/02/21 06:04:35;;;;;;;9.63;8.60;;;16.50;73.80;;;;;;5014021;28;20105;-79
2024/02/21 06:07:01;;;;;;;11.63;8.88;;;16.40;73.70;;;;;;5002129;28;20048;-79
2024/02/21 06:09:27;;;;;;;9.38;8.43;;;16.50;73.70;;;;;;4989435;28;20046;-80
2024/02/21 06:11:53;;;;;;;9.80;8.80;;;16.50;73.80;;;;;;4998054;28;20416;-79
2024/02/21 06:14:19;;;;;;;10.57;8.75;;;16.50;73.70;;;;;;5001311;28;20042;-79
2024/02/21 06:16:45;;;;;;;9.93;8.73;;;16.50;73.70;;;;;;4996766;28;20054;-79
2024/02/21 06:19:10;;;;;;;9.55;7.80;;;16.50;73.70;;;;;;5002310;28;20053;-80
2024/02/21 06:21:36;;;;;;;10.00;8.52;;;16.50;73.70;;;;;;4996113;28;20597;-80
2024/02/21 06:24:02;;;;;;;9.55;8.38;;;16.50;73.70;;;;;;4999831;28;20551;-80
2024/02/21 06:26:28;;;;;;;9.25;8.02;;;16.50;73.70;;;;;;4996529;28;20057;-79
2024/02/21 06:28:53;;;;;;;10.98;8.40;;;16.50;73.80;;;;;;5003093;28;20038;-80
2024/02/21 06:31:19;;;;;;;8.63;7.55;;;16.50;73.90;;;;;;4998567;28;20125;-79
2024/02/21 06:33:45;;;;;;;11.60;8.82;;;16.40;74.20;;;;;;5016979;28;20052;-79
2024/02/21 06:36:10;;;;;;;19.52;9.52;;;16.50;74.60;;;;;;5001734;28;20046;-79
2024/02/21 06:38:36;;;;;;;11.27;7.75;;;16.50;75.00;;;;;;5000868;28;20049;-80
2024/02/21 06:41:02;;;;;;;11.00;9.68;;;16.50;75.10;;;;;;5016021;28;20050;-78
2024/02/21 06:43:28;;;;;;;11.60;9.00;;;16.50;74.80;;;;;;5016831;28;20049;-79
2024/02/21 06:45:54;;;;;;;14.05;10.93;;;16.60;74.90;;;;;;4999184;28;20048;-79
2024/02/21 06:48:20;;;;;;;15.13;11.38;;;16.50;74.90;;;;;;5017023;28;20423;-80
2024/02/21 06:50:46;;;;;;;12.40;10.00;;;16.50;74.90;;;;;;5011455;28;20050;-80
2024/02/21 06:53:12;;;;;;;11.75;9.70;;;16.60;74.80;;;;;;5000557;28;20050;-81
2024/02/21 06:55:37;;;;;;;41.17;26.45;;;16.60;75.20;;;;;;5018704;28;20046;-79
2024/02/21 06:58:03;;;;;;;34.42;23.83;;;16.60;75.50;;;;;;5005930;28;20473;-80
2024/02/21 07:00:29;;;;;;;25.80;16.52;;;16.70;76.10;;;;;;4997823;28;20038;-79
2024/02/21 07:02:54;;;;;;;22.95;16.63;;;16.70;76.10;;;;;;5002866;28;20042;-80
2024/02/21 07:05:20;;;;;;;24.98;18.40;;;16.70;75.90;;;;;;4999923;28;20037;-79
2024/02/21 07:07:46;;;;;;;24.55;19.65;;;16.80;76.00;;;;;;4999208;28;20507;-79
2024/02/21 07:10:11;;;;;;;24.15;18.10;;;16.80;75.80;;;;;;5006062;28;20033;-79
2024/02/21 07:12:41;;;;;;;25.00;18.27;;;16.80;75.90;;;;;;5018364;28;20052;-79
2024/02/21 07:15:07;;;;;;;21.55;16.45;;;16.80;76.10;;;;;;5003885;28;20522;-79
2024/02/21 07:17:33;;;;;;;26.60;19.85;;;16.80;76.20;;;;;;5000385;28;20520;-78
2024/02/21 07:19:59;;;;;;;26.20;18.90;;;16.80;76.30;;;;;;5001108;28;20042;-78
2024/02/21 07:22:24;;;;;;;24.83;18.80;;;16.90;76.50;;;;;;4988444;28;20046;-78
2024/02/21 07:24:50;;;;;;;27.92;20.08;;;16.90;76.40;;;;;;5002528;28;20100;-79
2024/02/21 07:27:16;;;;;;;74.70;52.05;;;16.90;77.30;;;;;;5013375;28;20030;-79
2024/02/21 07:29:41;;;;;;;64.72;45.22;;;16.90;77.30;;;;;;4997192;28;20046;-79
2024/02/21 07:32:07;;;;;;;41.55;30.25;;;16.90;76.50;;;;;;5002241;28;20049;-77
2024/02/21 07:34:32;;;;;;;30.10;23.02;;;16.90;77.00;;;;;;5006672;28;20108;-78
2024/02/21 07:36:58;;;;;;;26.23;20.05;;;16.80;76.60;;;;;;5007102;28;20048;-77
2024/02/21 07:39:24;;;;;;;25.15;19.20;;;16.80;76.70;;;;;;5014376;28;20511;-77
2024/02/21 07:41:49;;;;;;;25.30;20.20;;;16.90;76.60;;;;;;5003556;28;20045;-79
2024/02/21 07:44:15;;;;;;;26.70;20.80;;;16.90;77.40;;;;;;4995523;28;20034;-79
2024/02/21 07:46:41;;;;;;;27.55;20.92;;;16.90;77.30;;;;;;5017639;28;20045;-79
2024/02/21 07:49:06;;;;;;;26.67;21.27;;;16.80;77.30;;;;;;5005889;28;20431;-78
2024/02/21 07:51:32;;;;;;;25.90;20.42;;;16.70;77.30;;;;;;5005835;28;20520;-78
2024/02/21 07:53:57;;;;;;;26.73;20.05;;;16.80;77.50;;;;;;4999272;28;20105;-78
2024/02/21 07:56:23;;;;;;;26.25;20.50;;;16.80;78.00;;;;;;4988218;28;20544;-78
2024/02/21 07:58:48;;;;;;;27.25;20.13;;;16.80;79.10;;;;;;5006258;28;20108;-79
2024/02/21 08:01:21;;;;;;;27.08;20.00;;;16.80;78.30;;;;;;5022835;28;20056;-79
2024/02/21 08:03:47;;;;;;;30.70;18.02;;;16.80;79.00;;;;;;5004716;28;20034;-79
2024/02/21 08:06:13;;;;;;;24.08;18.63;;;16.80;79.40;;;;;;5019926;28;20885;-79
2024/02/21 08:08:38;;;;;;;20.73;16.33;;;16.70;79.60;;;;;;5021002;28;20053;-79
2024/02/21 08:11:04;;;;;;;21.92;17.05;;;16.70;79.40;;;;;;5020868;28;20136;-78
2024/02/21 08:13:31;;;;;;;22.15;16.92;;;16.80;79.30;;;;;;5003078;28;20049;-80
2024/02/21 08:15:57;;;;;;;21.30;16.05;;;16.80;79.10;;;;;;4991812;28;20046;-80
2024/02/21 08:18:23;;;;;;;23.50;17.17;;;16.80;78.80;;;;;;5004613;28;20038;-79
2024/02/21 08:20:48;;;;;;;24.60;18.10;;;16.80;79.50;;;;;;4992074;28;20101;-78
2024/02/21 08:23:16;;;;;;;24.58;18.85;;;16.80;79.00;;;;;;4987945;28;20053;-78
2024/02/21 08:25:41;;;;;;;22.10;17.63;;;16.80;79.40;;;;;;5020717;28;20077;-78
2024/02/21 08:28:08;;;;;;;25.08;19.38;;;16.70;79.40;;;;;;5021408;28;20041;-78
2024/02/21 08:30:33;;;;;;;21.92;17.73;;;16.70;79.80;;;;;;5002004;28;20558;-79
2024/02/21 08:32:59;;;;;;;28.67;18.85;;;16.70;79.80;;;;;;5015002;28;20054;-78
2024/02/21 08:35:25;;;;;;;23.80;18.90;;;16.70;80.10;;;;;;5002305;28;20065;-80
2024/02/21 08:37:50;;;;;;;26.20;18.92;;;16.70;80.00;;;;;;5004165;28;20077;-79
2024/02/21 08:40:21;;;;;;;22.17;16.42;;;16.70;80.40;;;;;;5023222;28;20038;-83
2024/02/21 08:42:46;;;;;;;26.52;15.50;;;16.70;80.40;;;;;;5005314;28;20068;-80
2024/02/21 08:45:12;;;;;;;22.27;16.45;;;16.70;81.40;;;;;;5018864;28;20515;-79
2024/02/21 08:47:41;;;;;;;24.92;15.63;;;16.70;80.50;;;;;;5017233;28;20046;-79
2024/02/21 08:50:10;;;;;;;21.48;14.50;;;16.70;80.80;;;;;;5018903;28;20062;-79
2024/02/21 08:52:36;;;;;;;23.63;13.80;;;16.60;80.70;;;;;;5019399;28;20048;-79
2024/02/21 08:55:01;;;;;;;16.10;13.77;;;16.70;81.10;;;;;;5008325;28;20038;-79
2024/02/21 08:57:27;;;;;;;18.08;13.13;;;16.70;81.10;;;;;;5019013;28;20042;-78
2024/02/21 08:59:52;;;;;;;16.25;12.35;;;16.70;81.10;;;;;;5016396;28;20129;-80
2024/02/21 09:02:18;;;;;;;16.15;12.48;;;16.70;80.90;;;;;;5005651;28;20042;-79
2024/02/21 09:04:44;;;;;;;16.42;10.82;;;16.70;80.70;;;;;;4995947;28;20385;-78
2024/02/21 09:07:10;;;;;;;12.65;10.65;;;16.80;80.50;;;;;;5034167;28;20490;-77
2024/02/21 09:09:38;;;;;;;15.02;11.85;;;16.80;80.40;;;;;;5012374;28;20393;-78
2024/02/21 09:12:06;;;;;;;14.90;11.32;;;16.80;81.40;;;;;;5003646;28;20116;-78
2024/02/21 09:14:33;;;;;;;15.05;11.38;;;16.80;81.50;;;;;;5017825;28;20550;-78
2024/02/21 09:16:58;;;;;;;16.65;11.90;;;16.70;81.50;;;;;;5030801;28;20133;-78
2024/02/21 09:19:24;;;;;;;15.48;11.30;;;16.70;81.70;;;;;;5003922;28;20127;-79
2024/02/21 09:21:49;;;;;;;13.65;10.85;;;16.70;81.60;;;;;;5003141;28;20097;-79
2024/02/21 09:24:15;;;;;;;13.02;9.55;;;16.70;81.30;;;;;;5002876;28;20034;-79
2024/02/21 09:26:40;;;;;;;13.60;10.27;;;16.70;80.70;;;;;;5019913;28;20053;-78
2024/02/21 09:29:06;;;;;;;17.63;10.25;;;16.80;80.80;;;;;;5003963;28;20041;-79
2024/02/21 09:31:32;;;;;;;13.38;9.48;;;16.70;81.20;;;;;;5003729;28;20037;-79
2024/02/21 09:33:57;;;;;;;14.48;10.20;;;16.70;81.40;;;;;;5005772;28;20069;-79
2024/02/21 09:36:23;;;;;;;14.40;10.57;;;16.60;81.50;;;;;;5019224;28;20049;-79
2024/02/21 09:38:48;;;;;;;14.43;9.82;;;16.60;81.80;;;;;;5011531;28;20049;-79
2024/02/21 09:41:17;;;;;;;11.05;9.65;;;16.60;81.90;;;;;;5019991;28;20046;-78
2024/02/21 09:43:45;;;;;;;12.43;9.60;;;16.60;82.10;;;;;;4996463;28;20050;-79
2024/02/21 09:46:18;;;;;;;11.43;9.80;;;16.60;82.10;;;;;;4998282;28;20521;-79
2024/02/21 09:49:00;;;;;;;15.63;10.00;;;16.60;83.00;;;;;;5003727;28;20408;-79
2024/02/21 09:51:27;;;;;;;13.93;10.40;;;16.50;82.30;;;;;;5003541;28;20070;-79
2024/02/21 09:53:53;;;;;;;11.85;9.60;;;16.50;82.10;;;;;;4985013;28;20140;-79
2024/02/21 09:56:18;;;;;;;12.60;9.38;;;16.50;82.20;;;;;;5006692;28;20133;-78
2024/02/21 09:58:44;;;;;;;10.52;9.05;;;16.50;82.10;;;;;;5000771;28;20048;-79
2024/02/21 10:01:09;;;;;;;10.48;8.57;;;16.50;82.20;;;;;;5022722;28;20045;-79
2024/02/21 10:03:35;;;;;;;11.07;8.25;;;16.50;82.20;;;;;;5012843;28;20049;-79
2024/02/21 10:06:01;;;;;;;10.18;8.63;;;16.50;82.30;;;;;;5019884;28;20133;-79
2024/02/21 10:08:26;;;;;;;10.43;8.68;;;16.50;82.40;;;;;;5015010;28;20455;-79
2024/02/21 10:10:56;;;;;;;9.48;8.30;;;16.50;82.20;;;;;;4999123;28;20049;-79
2024/02/21 10:13:26;;;;;;;11.15;9.00;;;16.50;82.30;;;;;;4999266;28;20042;-79
2024/02/21 10:16:07;;;;;;;9.52;8.63;;;16.50;82.20;;;;;;5000208;28;20122;-79
2024/02/21 10:18:33;;;;;;;14.82;8.13;;;16.50;82.20;;;;;;4998316;28;20054;-79
2024/02/21 10:21:06;;;;;;;8.63;7.82;;;16.40;82.20;;;;;;5001195;28;20037;-79
2024/02/21 10:23:45;;;;;;;9.85;7.57;;;16.40;82.30;;;;;;5004537;28;20095;-79
2024/02/21 10:26:10;;;;;;;8.73;7.82;;;16.40;82.20;;;;;;5000368;28;20061;-79
2024/02/21 10:28:41;;;;;;;10.82;8.50;;;16.40;82.20;;;;;;4970566;28;20515;-79
2024/02/21 10:31:07;;;;;;;8.90;8.05;;;16.40;83.00;;;;;;4990157;28;20042;-78
2024/02/21 10:33:33;;;;;;;8.82;7.93;;;16.40;82.20;;;;;;5002674;28;20049;-79
2024/02/21 10:36:09;;;;;;;11.07;8.48;;;16.40;82.30;;;;;;5002954;28;20037;-79
2024/02/21 10:38:38;;;;;;;8.77;7.88;;;16.40;82.30;;;;;;5013464;28;20451;-79
2024/02/21 10:41:07;;;;;;;8.40;7.43;;;16.40;82.20;;;;;;5014989;28;20044;-79
2024/02/21 10:43:40;;;;;;;8.32;7.47;;;16.40;83.00;;;;;;5013400;28;20038;-79
2024/02/21 10:46:09;;;;;;;9.50;6.93;;;16.40;82.30;;;;;;5005162;28;20104;-79
2024/02/21 10:48:42;;;;;;;8.95;7.35;;;16.40;82.10;;;;;;4986274;28;20289;-79
2024/02/21 10:51:15;;;;;;;7.82;6.95;;;16.40;82.20;;;;;;4997150;28;20096;-78
2024/02/21 10:53:53;;;;;;;7.45;6.70;;;16.40;82.00;;;;;;5001773;28;20129;-78
2024/02/21 10:56:31;;;;;;;7.50;6.80;;;16.40;82.10;;;;;;4996782;28;20515;-78
2024/02/21 10:59:00;;;;;;;7.35;6.75;;;16.40;81.90;;;;;;4998163;28;20050;-78
2024/02/21 11:01:27;;;;;;;7.72;6.95;;;16.40;82.00;;;;;;4996589;28;20049;-78
2024/02/21 11:03:53;;;;;;;8.70;7.00;;;16.40;81.90;;;;;;4987998;28;20080;-79
2024/02/21 11:06:19;;;;;;;6.80;6.15;;;16.40;82.10;;;;;;4987247;28;20041;-79
2024/02/21 11:08:45;;;;;;;6.85;6.25;;;16.40;82.00;;;;;;5017173;28;20471;-79
2024/02/21 11:11:17;;;;;;;7.18;6.47;;;16.40;82.00;;;;;;5022222;28;20044;-79
2024/02/21 11:13:43;;;;;;;6.63;6.10;;;16.40;82.10;;;;;;5017040;28;20042;-79
2024/02/21 11:16:20;;;;;;;7.43;6.53;;;16.40;82.00;;;;;;5008432;28;20092;-79
2024/02/21 11:18:46;;;;;;;6.50;5.70;;;16.40;81.80;;;;;;5002445;28;20050;-79
2024/02/21 11:21:11;;;;;;;6.95;6.35;;;16.30;81.80;;;;;;5008359;28;20045;-79
2024/02/21 11:23:37;;;;;;;6.32;5.72;;;16.30;81.70;;;;;;5007537;28;20070;-79
2024/02/21 11:26:07;;;;;;;6.38;5.82;;;16.30;81.70;;;;;;4999170;28;20545;-79
2024/02/21 11:28:32;;;;;;;5.75;5.32;;;16.30;81.80;;;;;;5003796;28;20077;-79
2024/02/21 11:31:08;;;;;;;6.72;6.00;;;16.30;81.90;;;;;;5007664;28;20042;-78
2024/02/21 11:33:34;;;;;;;6.63;6.00;;;16.40;82.00;;;;;;5003334;28;20042;-79
2024/02/21 11:36:00;;;;;;;5.82;5.32;;;16.40;82.70;;;;;;5021913;28;20052;-79
2024/02/21 11:38:25;;;;;;;6.10;5.43;;;16.40;81.70;;;;;;5006581;28;20034;-79
2024/02/21 11:40:51;;;;;;;5.25;4.90;;;16.40;81.90;;;;;;5005713;28;20137;-79
2024/02/21 11:43:16;;;;;;;6.15;5.38;;;16.40;82.10;;;;;;5007887;28;20081;-79
2024/02/21 11:45:42;;;;;;;7.95;5.60;;;16.30;82.00;;;;;;5006733;28;20500;-79
2024/02/21 11:48:08;;;;;;;5.80;5.30;;;16.30;82.00;;;;;;5013862;28;20026;-78
2024/02/21 11:50:35;;;;;;;4.97;4.57;;;16.30;81.70;;;;;;4985059;28;20047;-78
2024/02/21 11:53:01;;;;;;;5.40;5.00;;;16.30;82.00;;;;;;5005908;28;20050;-78
2024/02/21 11:55:27;;;;;;;5.93;5.32;;;16.30;81.90;;;;;;5005645;28;20052;-78
2024/02/21 11:57:52;;;;;;;4.97;4.57;;;16.30;81.90;;;;;;5007796;28;20038;-78
2024/02/21 12:00:21;;;;;;;5.55;5.03;;;16.30;82.00;;;;;;5005977;28;20034;-78
2024/02/21 12:02:47;;;;;;;6.30;5.68;;;16.30;82.00;;;;;;4999288;28;20038;-78
2024/02/21 12:05:13;;;;;;;5.47;4.88;;;16.30;82.80;;;;;;5004009;28;20129;-78
2024/02/21 12:07:40;;;;;;;5.30;4.80;;;16.30;81.90;;;;;;5018137;28;20070;-78
2024/02/21 12:10:12;;;;;;;4.90;4.50;;;16.30;82.00;;;;;;5008058;28;20092;-79
2024/02/21 12:12:38;;;;;;;4.50;4.10;;;16.30;82.10;;;;;;4999001;28;20399;-79
2024/02/21 12:15:04;;;;;;;4.43;3.95;;;16.30;82.10;;;;;;5003701;28;20034;-79
2024/02/21 12:17:39;;;;;;;4.53;4.22;;;16.30;82.30;;;;;;5000796;28;20503;-78
2024/02/21 12:20:08;;;;;;;5.50;5.00;;;16.30;82.30;;;;;;5001270;28;20111;-79
2024/02/21 12:22:53;;;;;;;4.13;3.85;;;16.30;82.50;;;;;;5021923;28;20081;-79
2024/02/21 12:25:20;;;;;;;4.18;3.88;;;16.30;82.40;;;;;;4990259;28;20038;-78
2024/02/21 12:27:46;;;;;;;4.60;4.30;;;16.30;82.40;;;;;;5004747;28;20074;-78
2024/02/21 12:30:12;;;;;;;4.53;4.22;;;16.30;82.50;;;;;;5018824;28;20424;-79